Disclaimer

Please do not use the information listed here in-flight or in-navigation, as they are not provided to us by the airports but are provided by volunteers, so they might be outdated.

Search


Regions


Airport information page

Radio informations:
Tower (TWR) - 118.65 MHz

Airport informations:
Latitude: 34° 59' 19.61" N
Longitude: 003° 01' 41.54" W
Elevation: 574 feet - 175 meters
Operating hours: 24 hour operations
Operating agency: Civil government, landing fees and diplomatic clearance may be required
Timezone: UTC 0
Fuel: N/A

Runway information:
08/26 - 9842 x 148 feet< - >3000 x 45 meters

Recent METARs:
GMMW 130300Z 24003KT 190V270 CAVOK 06/05 Q1019 NOSIG
GMMW 130400Z 20003KT 170V250 CAVOK 06/04 Q1018 NOSIG
GMMW 130400Z 20003KT 170V250 CAVOK 06/04 Q1018 NOSIG

Airport on the map: